createdAt,value
2023-08-27T00:00:52.292Z,7.30
2023-08-27T00:01:52.267Z,6.40
2023-08-27T00:02:52.376Z,5.80
2023-08-27T00:03:52.278Z,6.60
2023-08-27T00:04:53.281Z,6.10
2023-08-27T00:05:52.243Z,7.40
2023-08-27T00:06:52.259Z,7.00
2023-08-27T00:07:52.215Z,7.00
2023-08-27T00:08:52.211Z,5.70
2023-08-27T00:09:52.177Z,4.50
2023-08-27T00:10:52.198Z,7.90
2023-08-27T00:11:52.200Z,6.80
2023-08-27T00:12:52.175Z,8.60
2023-08-27T00:13:52.157Z,7.80
2023-08-27T00:14:52.156Z,6.90
2023-08-27T00:15:53.267Z,6.90
2023-08-27T00:16:52.129Z,9.00
2023-08-27T00:17:53.608Z,7.30
2023-08-27T00:18:52.107Z,9.70
2023-08-27T00:19:52.309Z,9.10
2023-08-27T00:20:52.076Z,9.30
2023-08-27T00:21:52.142Z,8.30
2023-08-27T00:22:52.052Z,7.60
2023-08-27T00:23:52.047Z,8.60
2023-08-27T00:24:52.072Z,7.70
2023-08-27T00:25:52.013Z,8.50
2023-08-27T00:26:52.008Z,7.10
2023-08-27T00:27:51.982Z,9.00
2023-08-27T00:28:52.011Z,7.30
2023-08-27T00:29:51.981Z,9.00
2023-08-27T00:30:52.059Z,5.80
2023-08-27T00:31:51.957Z,7.40
2023-08-27T00:32:51.946Z,7.10
2023-08-27T00:33:51.914Z,5.60
2023-08-27T00:34:51.967Z,7.90
2023-08-27T00:35:51.898Z,7.80
2023-08-27T00:36:52.145Z,7.10
2023-08-27T00:37:51.909Z,7.70
2023-08-27T00:38:51.892Z,8.60
2023-08-27T00:39:51.854Z,6.90
2023-08-27T00:40:51.897Z,6.00
2023-08-27T00:41:51.829Z,7.20
2023-08-27T00:42:51.828Z,6.40
2023-08-27T00:43:51.801Z,7.10
2023-08-27T00:44:51.819Z,6.30
2023-08-27T00:45:51.811Z,6.40
2023-08-27T00:46:51.827Z,5.60
2023-08-27T00:47:51.794Z,5.30
2023-08-27T00:48:51.771Z,7.50
2023-08-27T00:49:51.742Z,5.70
2023-08-27T00:50:51.745Z,6.90
2023-08-27T00:51:51.714Z,8.30
2023-08-27T00:52:51.743Z,4.30
2023-08-27T00:53:51.701Z,7.70
2023-08-27T00:54:51.709Z,5.90
2023-08-27T00:55:51.970Z,6.20
2023-08-27T00:56:51.682Z,5.80
2023-08-27T00:57:51.646Z,8.10
2023-08-27T00:58:51.717Z,8.60
2023-08-27T00:59:51.625Z,6.60
2023-08-27T01:00:51.675Z,7.10
2023-08-27T01:01:51.612Z,5.00
2023-08-27T01:02:51.725Z,8.20
2023-08-27T01:03:51.588Z,6.50
2023-08-27T01:04:51.618Z,7.50
2023-08-27T01:05:51.556Z,4.90
2023-08-27T01:06:51.569Z,7.70
2023-08-27T01:07:52.387Z,7.20
2023-08-27T01:08:51.557Z,7.90
2023-08-27T01:09:51.605Z,6.60
2023-08-27T01:10:51.558Z,7.10
2023-08-27T01:11:51.491Z,7.60
2023-08-27T01:12:51.499Z,7.50
2023-08-27T01:13:51.476Z,5.60
2023-08-27T01:14:51.485Z,6.20
2023-08-27T01:15:51.479Z,6.70
2023-08-27T01:16:51.474Z,6.90
2023-08-27T01:17:51.453Z,5.70
2023-08-27T01:18:51.430Z,7.10
2023-08-27T01:19:51.413Z,7.10
2023-08-27T01:20:51.433Z,8.10
2023-08-27T01:21:51.386Z,6.70
2023-08-27T01:22:51.394Z,5.40
2023-08-27T01:23:51.361Z,6.70
2023-08-27T01:24:51.387Z,7.30
2023-08-27T01:25:51.381Z,7.60
2023-08-27T01:26:51.637Z,6.00
2023-08-27T01:27:51.320Z,6.60
2023-08-27T01:28:51.319Z,9.60
2023-08-27T01:29:51.300Z,10.20
2023-08-27T01:30:51.367Z,8.90
2023-08-27T01:31:51.285Z,8.50
2023-08-27T01:32:51.320Z,8.70
2023-08-27T01:33:51.244Z,5.90
2023-08-27T01:34:51.252Z,7.10
2023-08-27T01:35:51.236Z,6.10
2023-08-27T01:36:51.245Z,7.80
2023-08-27T01:37:51.267Z,8.70
2023-08-27T01:38:51.233Z,7.90
2023-08-27T01:39:51.206Z,7.00
2023-08-27T01:40:51.186Z,7.70
2023-08-27T01:41:51.183Z,7.80
2023-08-27T01:42:51.162Z,10.80
2023-08-27T01:43:51.193Z,6.70
2023-08-27T01:44:51.136Z,7.60
2023-08-27T01:45:51.736Z,6.50
2023-08-27T01:46:51.157Z,7.30
2023-08-27T01:47:51.106Z,7.20
2023-08-27T01:48:51.100Z,7.10
2023-08-27T01:49:51.145Z,6.80
2023-08-27T01:50:51.090Z,8.80
2023-08-27T01:51:51.056Z,6.10
2023-08-27T01:52:51.060Z,6.30
2023-08-27T01:53:51.059Z,7.20
2023-08-27T01:54:51.041Z,6.90
2023-08-27T01:55:51.022Z,5.80
2023-08-27T01:56:51.037Z,6.30
2023-08-27T01:57:50.980Z,8.10
2023-08-27T01:58:51.035Z,7.00
2023-08-27T01:59:50.976Z,5.80
2023-08-27T02:00:51.193Z,6.50
2023-08-27T02:01:50.965Z,6.90
2023-08-27T02:02:51.046Z,8.50
2023-08-27T02:03:50.937Z,7.50
2023-08-27T02:04:50.950Z,5.20
2023-08-27T02:05:50.895Z,8.00
2023-08-27T02:06:50.906Z,6.90
2023-08-27T02:07:50.911Z,7.10
2023-08-27T02:08:50.889Z,6.30
2023-08-27T02:09:50.856Z,7.70
2023-08-27T02:10:54.606Z,7.30
2023-08-27T02:11:50.887Z,6.80
2023-08-27T02:12:50.846Z,5.80
2023-08-27T02:13:50.815Z,7.00
2023-08-27T02:14:52.202Z,7.50
2023-08-27T02:15:50.799Z,5.40
2023-08-27T02:16:50.874Z,6.20
2023-08-27T02:17:50.837Z,6.00
2023-08-27T02:18:50.775Z,7.50
2023-08-27T02:19:50.747Z,6.40
2023-08-27T02:20:50.764Z,9.30
2023-08-27T02:21:53.124Z,7.80
2023-08-27T02:22:50.726Z,8.20
2023-08-27T02:23:50.744Z,4.60
2023-08-27T02:24:50.707Z,5.90
2023-08-27T02:25:50.685Z,6.50
2023-08-27T02:26:50.679Z,7.80
2023-08-27T02:27:50.671Z,5.80
2023-08-27T02:28:50.669Z,6.50
2023-08-27T02:29:50.673Z,9.60
2023-08-27T02:30:50.666Z,9.60
2023-08-27T02:31:50.634Z,7.90
2023-08-27T02:32:50.638Z,7.70
2023-08-27T02:33:50.634Z,6.80
2023-08-27T02:34:50.632Z,7.50
2023-08-27T02:35:50.584Z,7.60
2023-08-27T02:36:50.570Z,7.10
2023-08-27T02:37:50.561Z,5.80
2023-08-27T02:38:50.545Z,6.40
2023-08-27T02:39:50.546Z,8.20
2023-08-27T02:40:50.555Z,9.10
2023-08-27T02:41:51.390Z,8.20
2023-08-27T02:42:50.492Z,6.60
2023-08-27T02:43:50.492Z,8.50
2023-08-27T02:44:50.488Z,6.30
2023-08-27T02:45:50.466Z,7.80
2023-08-27T02:46:50.465Z,6.40
2023-08-27T02:47:50.876Z,5.80
2023-08-27T02:48:50.426Z,6.70
2023-08-27T02:49:50.431Z,6.00
2023-08-27T02:50:50.421Z,8.40
2023-08-27T02:51:50.453Z,6.70
2023-08-27T02:52:50.389Z,7.00
2023-08-27T02:53:50.414Z,8.30
2023-08-27T02:54:50.375Z,7.50
2023-08-27T02:55:50.397Z,5.30
2023-08-27T02:56:50.374Z,6.50
2023-08-27T02:57:50.390Z,7.90
2023-08-27T02:58:50.342Z,5.70
2023-08-27T02:59:50.333Z,7.80
2023-08-27T03:00:50.299Z,6.90
2023-08-27T03:01:50.325Z,7.20
2023-08-27T03:02:50.338Z,7.90
2023-08-27T03:03:50.564Z,5.40
2023-08-27T03:04:50.252Z,5.30
2023-08-27T03:05:50.289Z,6.30
2023-08-27T03:06:50.227Z,7.70
2023-08-27T03:07:50.235Z,6.90
2023-08-27T03:08:50.251Z,5.30
2023-08-27T03:09:51.273Z,7.20
2023-08-27T03:10:50.184Z,7.40
2023-08-27T03:11:50.201Z,7.30
2023-08-27T03:12:50.235Z,7.00
2023-08-27T03:13:50.174Z,6.50
2023-08-27T03:14:50.144Z,5.90
2023-08-27T03:15:50.194Z,6.90
2023-08-27T03:16:50.129Z,8.00
2023-08-27T03:17:50.172Z,6.50
2023-08-27T03:18:50.102Z,7.50
2023-08-27T03:19:50.108Z,6.70
2023-08-27T03:20:50.132Z,7.40
2023-08-27T03:21:50.082Z,6.30
2023-08-27T03:22:50.059Z,7.40
2023-08-27T03:23:50.067Z,6.80
2023-08-27T03:24:50.035Z,8.00
2023-08-27T03:25:50.035Z,6.30
2023-08-27T03:26:50.064Z,7.20
2023-08-27T03:27:50.018Z,6.50
2023-08-27T03:28:50.015Z,7.80
2023-08-27T03:29:49.993Z,6.30
2023-08-27T03:30:49.984Z,6.20
2023-08-27T03:31:49.976Z,6.50
2023-08-27T03:32:50.113Z,7.10
2023-08-27T03:33:49.962Z,8.10
2023-08-27T03:34:49.950Z,8.50
2023-08-27T03:35:49.940Z,7.00
2023-08-27T03:36:49.933Z,6.20
2023-08-27T03:37:49.912Z,5.20
2023-08-27T03:38:49.889Z,9.70
2023-08-27T03:39:49.876Z,6.30
2023-08-27T03:40:49.869Z,8.10
2023-08-27T03:41:49.860Z,6.70
2023-08-27T03:42:49.883Z,9.90
2023-08-27T03:43:49.842Z,7.90
2023-08-27T03:44:49.857Z,7.20
2023-08-27T03:45:49.894Z,8.50
2023-08-27T03:46:49.797Z,6.90
2023-08-27T03:47:49.819Z,5.30
2023-08-27T03:48:49.799Z,7.90
2023-08-27T03:49:49.780Z,6.20
2023-08-27T03:50:49.995Z,9.40
2023-08-27T03:51:49.848Z,5.90
2023-08-27T03:52:49.734Z,8.20
2023-08-27T03:53:49.743Z,7.90
2023-08-27T03:54:49.745Z,7.40
2023-08-27T03:55:49.720Z,8.50
2023-08-27T03:56:49.680Z,6.60
2023-08-27T03:57:49.761Z,8.20
2023-08-27T03:58:49.663Z,6.90
2023-08-27T03:59:49.670Z,5.50
2023-08-27T04:00:49.714Z,8.90
2023-08-27T04:01:49.675Z,8.30
2023-08-27T04:02:49.646Z,6.40
2023-08-27T04:03:49.627Z,7.50
2023-08-27T04:04:49.546Z,6.50
2023-08-27T04:05:49.652Z,7.00
2023-08-27T04:06:49.593Z,8.90
2023-08-27T04:07:49.586Z,7.70
2023-08-27T04:08:49.513Z,7.60
2023-08-27T04:09:49.512Z,8.40
2023-08-27T04:10:49.529Z,6.50
2023-08-27T04:11:49.521Z,5.30
2023-08-27T04:12:49.483Z,8.70
2023-08-27T04:13:49.468Z,7.40
2023-08-27T04:14:49.439Z,6.90
2023-08-27T04:15:49.464Z,8.30
2023-08-27T04:16:49.437Z,5.20
2023-08-27T04:17:49.696Z,5.40
2023-08-27T04:18:49.385Z,5.00
2023-08-27T04:19:49.396Z,9.50
2023-08-27T04:20:49.386Z,6.60
2023-08-27T04:21:49.373Z,8.30
2023-08-27T04:22:49.370Z,7.60
2023-08-27T04:23:49.362Z,6.80
2023-08-27T04:24:49.324Z,6.80
2023-08-27T04:25:49.334Z,7.20
2023-08-27T04:26:49.343Z,7.20
2023-08-27T04:27:49.322Z,6.60
2023-08-27T04:28:49.292Z,7.50
2023-08-27T04:29:49.310Z,6.50
2023-08-27T04:30:49.260Z,6.40
2023-08-27T04:31:49.319Z,5.80
2023-08-27T04:32:49.295Z,6.30
2023-08-27T04:33:49.251Z,5.50
2023-08-27T04:34:49.218Z,10.40
2023-08-27T04:35:49.287Z,6.90
2023-08-27T04:36:49.220Z,6.60
2023-08-27T04:37:50.143Z,7.60
2023-08-27T04:38:49.177Z,6.30
2023-08-27T04:39:49.177Z,7.80
2023-08-27T04:40:49.159Z,8.20
2023-08-27T04:41:49.188Z,9.40
2023-08-27T04:42:49.173Z,9.10
2023-08-27T04:43:49.141Z,9.80
2023-08-27T04:44:49.112Z,7.70
2023-08-27T04:45:49.251Z,11.00
2023-08-27T04:46:49.118Z,7.00
2023-08-27T04:47:49.143Z,9.10
2023-08-27T04:48:49.102Z,9.00
2023-08-27T04:49:49.094Z,8.30
2023-08-27T04:50:49.125Z,6.50
2023-08-27T04:51:49.084Z,6.90
2023-08-27T04:52:49.083Z,8.80
2023-08-27T04:53:49.045Z,7.10
2023-08-27T04:54:49.012Z,7.80
2023-08-27T04:55:49.059Z,7.10
2023-08-27T04:56:48.978Z,7.60
2023-08-27T04:57:48.993Z,6.80
2023-08-27T04:58:48.973Z,7.20
2023-08-27T04:59:48.965Z,6.60
2023-08-27T05:00:48.979Z,8.40
2023-08-27T05:01:48.969Z,7.40
2023-08-27T05:02:48.927Z,4.80
2023-08-27T05:03:48.947Z,6.80
2023-08-27T05:04:48.919Z,8.30
2023-08-27T05:05:48.981Z,8.20
2023-08-27T05:06:48.900Z,7.90
2023-08-27T05:07:48.937Z,6.90
2023-08-27T05:08:48.849Z,5.80
2023-08-27T05:09:48.868Z,6.90
2023-08-27T05:10:48.849Z,8.20
2023-08-27T05:11:48.842Z,7.40
2023-08-27T05:12:48.827Z,4.80
2023-08-27T05:13:48.852Z,5.70
2023-08-27T05:14:48.796Z,7.70
2023-08-27T05:15:48.874Z,6.50
2023-08-27T05:16:48.767Z,7.70
2023-08-27T05:17:48.784Z,5.80
2023-08-27T05:18:48.782Z,6.40
2023-08-27T05:19:48.754Z,6.70
2023-08-27T05:20:48.733Z,7.20
2023-08-27T05:21:48.729Z,8.70
2023-08-27T05:22:48.707Z,6.10
2023-08-27T05:23:48.741Z,9.00
2023-08-27T05:24:48.698Z,7.30
2023-08-27T05:25:48.705Z,5.80
2023-08-27T05:26:48.679Z,8.00
2023-08-27T05:27:48.659Z,8.10
2023-08-27T05:28:48.642Z,7.80
2023-08-27T05:29:48.704Z,7.40
2023-08-27T05:30:48.648Z,6.70
2023-08-27T05:31:48.629Z,9.10
2023-08-27T05:32:48.654Z,8.80
2023-08-27T05:33:48.598Z,7.70
2023-08-27T05:34:48.598Z,6.30
2023-08-27T05:35:48.617Z,7.30
2023-08-27T05:36:48.548Z,7.40
2023-08-27T05:37:48.565Z,7.20
2023-08-27T05:38:48.526Z,6.60
2023-08-27T05:39:48.548Z,7.20
2023-08-27T05:40:48.532Z,6.70
2023-08-27T05:41:48.559Z,9.00
2023-08-27T05:42:48.489Z,7.40
2023-08-27T05:43:48.768Z,8.50
2023-08-27T05:44:48.462Z,7.60
2023-08-27T05:45:48.477Z,7.20
2023-08-27T05:46:48.507Z,7.50
2023-08-27T05:47:48.460Z,7.10
2023-08-27T05:48:48.452Z,5.60
2023-08-27T05:49:48.434Z,7.00
2023-08-27T05:50:48.398Z,7.40
2023-08-27T05:51:49.115Z,6.40
2023-08-27T05:52:48.400Z,6.50
2023-08-27T05:53:48.388Z,7.30
2023-08-27T05:54:48.357Z,8.00
2023-08-27T05:55:48.363Z,7.80
2023-08-27T05:56:48.342Z,8.20
2023-08-27T05:57:48.392Z,10.20
2023-08-27T05:58:48.309Z,5.40
2023-08-27T05:59:48.329Z,6.20
2023-08-27T06:00:48.297Z,8.70
2023-08-27T06:01:48.364Z,7.50
2023-08-27T06:02:48.297Z,6.40
2023-08-27T06:03:48.321Z,7.50
2023-08-27T06:04:48.257Z,6.90
2023-08-27T06:05:48.244Z,8.10
2023-08-27T06:06:48.232Z,7.20
2023-08-27T06:07:48.252Z,9.50
2023-08-27T06:08:48.215Z,7.50
2023-08-27T06:09:48.238Z,6.60
2023-08-27T06:10:48.258Z,6.20
2023-08-27T06:11:48.198Z,8.10
2023-08-27T06:12:48.163Z,9.20
2023-08-27T06:13:48.194Z,7.60
2023-08-27T06:14:48.202Z,6.50
2023-08-27T06:15:48.214Z,7.80
2023-08-27T06:16:48.133Z,6.70
2023-08-27T06:17:48.175Z,8.10
2023-08-27T06:18:48.136Z,7.60
2023-08-27T06:19:49.384Z,8.10
2023-08-27T06:20:48.109Z,6.60
2023-08-27T06:21:48.107Z,6.20
2023-08-27T06:22:48.054Z,5.60
2023-08-27T06:23:48.063Z,6.40
2023-08-27T06:24:48.143Z,6.00
2023-08-27T06:25:48.080Z,7.40
2023-08-27T06:26:48.004Z,5.50
2023-08-27T06:27:48.030Z,7.40
2023-08-27T06:28:47.995Z,7.50
2023-08-27T06:29:48.016Z,7.10
2023-08-27T06:30:47.986Z,6.50
2023-08-27T06:31:48.009Z,5.30
2023-08-27T06:32:47.986Z,6.50
2023-08-27T06:33:47.965Z,8.30
2023-08-27T06:34:47.926Z,7.90
2023-08-27T06:35:47.943Z,7.20
2023-08-27T06:36:47.957Z,7.60
2023-08-27T06:37:47.906Z,7.40
2023-08-27T06:38:47.887Z,7.40
2023-08-27T06:39:47.893Z,7.40
2023-08-27T06:40:47.872Z,6.90
2023-08-27T06:41:47.874Z,6.20
2023-08-27T06:42:47.863Z,6.30
2023-08-27T06:43:47.839Z,6.50
2023-08-27T06:44:47.826Z,8.40
2023-08-27T06:45:47.864Z,8.00
2023-08-27T06:46:47.796Z,8.50
2023-08-27T06:47:47.827Z,11.60
2023-08-27T06:48:47.821Z,12.80
2023-08-27T06:49:47.760Z,10.30
2023-08-27T06:50:47.796Z,7.10
2023-08-27T06:51:47.759Z,9.40
2023-08-27T06:52:47.758Z,9.00
2023-08-27T06:53:47.730Z,8.30
2023-08-27T06:54:47.767Z,10.00
2023-08-27T06:55:47.853Z,9.00
2023-08-27T06:56:47.752Z,6.60
2023-08-27T06:57:47.682Z,8.90
2023-08-27T06:58:47.686Z,11.30
2023-08-27T06:59:47.646Z,11.20
2023-08-27T07:00:47.705Z,8.20
2023-08-27T07:01:47.674Z,11.10
2023-08-27T07:02:47.962Z,10.60
2023-08-27T07:03:47.654Z,7.70
2023-08-27T07:04:47.611Z,7.10
2023-08-27T07:05:47.590Z,5.60
2023-08-27T07:06:47.585Z,7.00
2023-08-27T07:07:47.586Z,5.40
2023-08-27T07:08:47.675Z,6.70
2023-08-27T07:09:47.546Z,8.40
2023-08-27T07:10:47.541Z,7.20
2023-08-27T07:11:47.546Z,5.90
2023-08-27T07:12:47.518Z,7.30
2023-08-27T07:13:49.463Z,8.60
2023-08-27T07:14:47.513Z,7.90
2023-08-27T07:15:47.486Z,7.10
2023-08-27T07:16:47.491Z,7.40
2023-08-27T07:17:47.476Z,7.80
2023-08-27T07:18:47.511Z,8.80
2023-08-27T07:19:47.433Z,6.50
2023-08-27T07:20:47.444Z,6.30
2023-08-27T07:21:47.411Z,9.50
2023-08-27T07:22:47.412Z,9.30
2023-08-27T07:23:47.399Z,8.40
2023-08-27T07:24:47.411Z,10.50
2023-08-27T07:25:47.397Z,10.60
2023-08-27T07:26:47.497Z,8.90
2023-08-27T07:27:47.345Z,6.40
2023-08-27T07:28:47.351Z,8.80
2023-08-27T07:29:47.323Z,8.20
2023-08-27T07:30:48.273Z,8.70
2023-08-27T07:31:47.297Z,7.20
2023-08-27T07:32:47.298Z,7.10
2023-08-27T07:33:47.281Z,10.50
2023-08-27T07:34:47.312Z,7.40
2023-08-27T07:35:48.601Z,5.80
2023-08-27T07:36:47.346Z,8.70
2023-08-27T07:37:47.230Z,9.20
2023-08-27T07:38:47.228Z,9.10
2023-08-27T07:39:47.204Z,10.50
2023-08-27T07:40:47.237Z,7.80
2023-08-27T07:41:47.190Z,10.50
2023-08-27T07:42:47.220Z,9.40
2023-08-27T07:43:47.162Z,8.70
2023-08-27T07:44:47.177Z,8.90
2023-08-27T07:45:47.185Z,9.90
2023-08-27T07:46:47.278Z,8.20
2023-08-27T07:47:47.304Z,8.20
2023-08-27T07:48:47.133Z,10.80
2023-08-27T07:49:47.107Z,12.00
2023-08-27T07:50:47.101Z,10.60
2023-08-27T07:51:47.169Z,8.10
2023-08-27T07:52:47.119Z,8.50
2023-08-27T07:53:47.070Z,7.00
2023-08-27T07:54:47.295Z,9.10
2023-08-27T07:55:47.030Z,8.10
2023-08-27T07:56:47.057Z,8.40
2023-08-27T07:57:47.010Z,7.90
2023-08-27T07:58:47.036Z,7.10
2023-08-27T07:59:46.985Z,16.40
2023-08-27T08:00:47.045Z,15.30
2023-08-27T08:01:48.395Z,16.00
2023-08-27T08:02:47.028Z,12.40
2023-08-27T08:03:46.991Z,8.30
2023-08-27T08:04:47.010Z,7.80
2023-08-27T08:05:46.923Z,9.10
2023-08-27T08:06:46.931Z,7.40
2023-08-27T08:07:46.921Z,4.40
2023-08-27T08:08:46.907Z,6.10
2023-08-27T08:09:46.910Z,5.90
2023-08-27T08:10:46.931Z,6.00
2023-08-27T08:11:46.883Z,5.10
2023-08-27T08:12:46.852Z,5.00
2023-08-27T08:13:46.828Z,5.20
2023-08-27T08:14:46.863Z,5.30
2023-08-27T08:15:46.831Z,6.40
2023-08-27T08:16:46.973Z,5.90
2023-08-27T08:17:46.965Z,6.60
2023-08-27T08:18:46.798Z,8.20
2023-08-27T08:19:46.799Z,4.30
2023-08-27T08:20:46.768Z,5.10
2023-08-27T08:21:46.741Z,2.90
2023-08-27T08:22:46.778Z,5.30
2023-08-27T08:23:46.719Z,2.40
2023-08-27T08:24:46.726Z,3.70
2023-08-27T08:25:46.732Z,5.30
2023-08-27T08:26:46.702Z,4.60
2023-08-27T08:27:46.671Z,5.30
2023-08-27T08:28:46.776Z,3.70
2023-08-27T08:29:46.661Z,3.90
2023-08-27T08:30:46.757Z,4.90
2023-08-27T08:31:46.633Z,5.00
2023-08-27T08:32:46.660Z,3.30
2023-08-27T08:33:46.614Z,3.90
2023-08-27T08:34:46.610Z,3.20
2023-08-27T08:35:46.606Z,4.40
2023-08-27T08:36:46.621Z,3.40
2023-08-27T08:37:46.576Z,5.50
2023-08-27T08:38:46.576Z,6.50
2023-08-27T08:39:47.840Z,4.20
2023-08-27T08:40:46.618Z,3.10
2023-08-27T08:41:46.565Z,4.60
2023-08-27T08:42:46.598Z,3.40
2023-08-27T08:43:46.526Z,4.60
2023-08-27T08:44:46.525Z,6.20
2023-08-27T08:45:46.492Z,1.80
2023-08-27T08:46:47.860Z,2.80
2023-08-27T08:47:46.567Z,4.10
2023-08-27T08:48:46.470Z,3.00
2023-08-27T08:49:48.549Z,5.00
2023-08-27T08:50:46.445Z,5.00
2023-08-27T08:51:46.428Z,5.30
2023-08-27T08:52:46.697Z,4.50
2023-08-27T08:53:46.408Z,5.60
2023-08-27T08:54:46.405Z,2.90
2023-08-27T08:55:46.436Z,4.10
2023-08-27T08:56:46.477Z,5.00
2023-08-27T08:57:46.370Z,4.40
2023-08-27T08:58:46.364Z,3.30
2023-08-27T08:59:46.344Z,5.60
2023-08-27T09:00:46.354Z,3.40
2023-08-27T09:01:46.360Z,4.90
2023-08-27T09:02:46.374Z,4.60
2023-08-27T09:03:46.696Z,3.20
2023-08-27T09:04:46.319Z,4.10
2023-08-27T09:05:47.566Z,5.60
2023-08-27T09:06:46.287Z,5.30
2023-08-27T09:07:46.261Z,4.60
2023-08-27T09:08:46.262Z,5.30
2023-08-27T09:09:46.306Z,5.70
2023-08-27T09:10:47.464Z,6.50
2023-08-27T09:11:49.565Z,4.60
2023-08-27T09:12:46.214Z,4.90
2023-08-27T09:13:46.457Z,3.90
2023-08-27T09:14:46.191Z,5.20
2023-08-27T09:15:46.878Z,6.20
2023-08-27T09:16:46.269Z,4.40
2023-08-27T09:17:46.193Z,4.00
2023-08-27T09:18:46.185Z,5.90
2023-08-27T09:19:46.127Z,4.50
2023-08-27T09:20:46.177Z,6.20
2023-08-27T09:21:46.143Z,6.00
2023-08-27T09:22:46.115Z,4.40
2023-08-27T09:23:46.901Z,4.00
2023-08-27T09:24:46.115Z,4.20
2023-08-27T09:25:46.066Z,5.60
2023-08-27T09:26:46.128Z,4.60
2023-08-27T09:27:46.062Z,4.30
2023-08-27T09:28:46.096Z,3.50
2023-08-27T09:29:48.483Z,3.10
2023-08-27T09:30:46.048Z,3.90
2023-08-27T09:31:46.096Z,3.90
2023-08-27T09:32:46.092Z,3.50
2023-08-27T09:33:45.982Z,5.30
2023-08-27T09:34:46.123Z,3.90
2023-08-27T09:35:46.210Z,4.70
2023-08-27T09:36:45.977Z,5.70
2023-08-27T09:37:45.994Z,6.10
2023-08-27T09:38:45.965Z,4.60
2023-08-27T09:39:46.165Z,3.40
2023-08-27T09:40:45.993Z,3.20
2023-08-27T09:41:46.254Z,3.10
2023-08-27T09:42:45.899Z,6.60
2023-08-27T09:43:46.085Z,3.00
2023-08-27T09:44:47.977Z,4.40
2023-08-27T09:45:45.886Z,3.70
2023-08-27T09:46:45.861Z,4.80
2023-08-27T09:47:45.869Z,3.60
2023-08-27T09:48:45.839Z,3.40
2023-08-27T09:49:45.853Z,2.30
2023-08-27T09:50:45.838Z,3.60
2023-08-27T09:51:45.797Z,3.20
2023-08-27T09:52:45.828Z,2.20
2023-08-27T09:53:45.792Z,3.80
2023-08-27T09:54:45.829Z,3.40
2023-08-27T09:55:45.763Z,3.40
2023-08-27T09:56:45.841Z,4.90
2023-08-27T09:57:45.728Z,3.50
2023-08-27T09:58:45.734Z,2.70
2023-08-27T09:59:45.720Z,5.50
2023-08-27T10:00:45.747Z,4.50
2023-08-27T10:01:45.709Z,5.30
2023-08-27T10:02:45.712Z,3.20
2023-08-27T10:03:46.293Z,4.30
2023-08-27T10:04:45.662Z,5.60
2023-08-27T10:05:45.661Z,2.90
2023-08-27T10:06:45.659Z,4.80
2023-08-27T10:07:45.619Z,4.40
2023-08-27T10:08:45.989Z,3.30
2023-08-27T10:09:45.602Z,4.50
2023-08-27T10:10:45.639Z,1.80
2023-08-27T10:11:45.570Z,3.90
2023-08-27T10:12:45.597Z,5.70
2023-08-27T10:13:45.548Z,5.60
2023-08-27T10:14:45.556Z,3.50
2023-08-27T10:15:45.607Z,6.50
2023-08-27T10:16:45.549Z,13.30
2023-08-27T10:17:45.569Z,27.80
2023-08-27T10:18:45.557Z,8.80
2023-08-27T10:19:46.075Z,5.60
2023-08-27T10:20:45.491Z,6.30
2023-08-27T10:21:45.495Z,4.60
2023-08-27T10:22:45.471Z,2.90
2023-08-27T10:23:45.479Z,3.70
2023-08-27T10:24:45.440Z,4.90
2023-08-27T10:25:45.429Z,3.80
2023-08-27T10:26:45.582Z,2.10
2023-08-27T10:27:45.597Z,4.90
2023-08-27T10:28:45.446Z,3.90
2023-08-27T10:29:45.371Z,4.10
2023-08-27T10:30:45.484Z,2.70
2023-08-27T10:31:45.413Z,2.80
2023-08-27T10:32:45.463Z,3.20
2023-08-27T10:33:45.352Z,4.10
2023-08-27T10:34:45.335Z,2.90
2023-08-27T10:35:46.013Z,2.30
2023-08-27T10:36:45.307Z,2.30
2023-08-27T10:37:45.297Z,4.20
2023-08-27T10:38:45.287Z,2.20
2023-08-27T10:39:45.281Z,3.30
2023-08-27T10:40:45.263Z,3.80
2023-08-27T10:41:45.261Z,1.20
2023-08-27T10:42:45.240Z,2.00
2023-08-27T10:43:45.220Z,2.40
2023-08-27T10:44:45.243Z,3.40
2023-08-27T10:45:45.235Z,3.00
2023-08-27T10:46:45.245Z,2.60
2023-08-27T10:47:45.207Z,2.60
2023-08-27T10:48:45.184Z,1.90
2023-08-27T10:49:45.154Z,4.00
2023-08-27T10:50:45.169Z,4.80
2023-08-27T10:51:45.141Z,3.00
2023-08-27T10:52:45.442Z,2.10
2023-08-27T10:53:45.109Z,1.90
2023-08-27T10:54:45.119Z,2.40
2023-08-27T10:55:45.123Z,3.00
2023-08-27T10:56:45.104Z,2.40
2023-08-27T10:57:45.079Z,2.90
2023-08-27T10:58:45.074Z,3.00
2023-08-27T10:59:45.060Z,4.20
2023-08-27T11:00:45.106Z,3.80
2023-08-27T11:01:45.667Z,3.10
2023-08-27T11:02:45.101Z,4.50
2023-08-27T11:03:45.030Z,3.90
2023-08-27T11:04:45.050Z,5.30
2023-08-27T11:05:45.013Z,5.00
2023-08-27T11:06:45.010Z,4.30
2023-08-27T11:07:44.976Z,2.60
2023-08-27T11:08:44.969Z,2.20
2023-08-27T11:09:44.966Z,3.60
2023-08-27T11:10:44.932Z,2.80
2023-08-27T11:11:45.020Z,3.50
2023-08-27T11:12:44.912Z,3.80
2023-08-27T11:13:44.917Z,3.40
2023-08-27T11:14:44.895Z,2.40
2023-08-27T11:15:44.890Z,2.90
2023-08-27T11:16:44.968Z,4.10
2023-08-27T11:17:46.463Z,1.50
2023-08-27T11:18:44.852Z,1.80
2023-08-27T11:19:44.853Z,2.40
2023-08-27T11:20:44.824Z,2.20
2023-08-27T11:21:44.854Z,2.80
2023-08-27T11:22:44.831Z,2.10
2023-08-27T11:23:44.807Z,3.80
2023-08-27T11:24:45.671Z,2.80
2023-08-27T11:25:44.780Z,2.60
2023-08-27T11:26:44.796Z,4.10
2023-08-27T11:27:44.764Z,4.40
2023-08-27T11:28:44.784Z,3.60
2023-08-27T11:29:44.760Z,3.10
2023-08-27T11:30:44.737Z,2.60
2023-08-27T11:31:44.724Z,4.30
2023-08-27T11:32:44.761Z,2.40
2023-08-27T11:33:44.729Z,5.10
2023-08-27T11:34:44.708Z,2.40
2023-08-27T11:35:44.686Z,3.80
2023-08-27T11:36:44.689Z,2.50
2023-08-27T11:37:44.672Z,2.30
2023-08-27T11:38:44.641Z,4.50
2023-08-27T11:39:44.694Z,1.40
2023-08-27T11:40:44.632Z,2.60
2023-08-27T11:41:44.616Z,4.10
2023-08-27T11:42:44.585Z,3.30
2023-08-27T11:43:44.600Z,3.10
2023-08-27T11:44:44.583Z,4.10
2023-08-27T11:45:44.629Z,3.10
2023-08-27T11:46:44.600Z,3.40
2023-08-27T11:47:44.610Z,4.40
2023-08-27T11:48:44.534Z,4.40
2023-08-27T11:49:44.542Z,2.60
2023-08-27T11:50:44.610Z,3.60
2023-08-27T11:51:44.653Z,2.50
2023-08-27T11:52:44.499Z,4.40
2023-08-27T11:53:44.527Z,5.00
2023-08-27T11:54:44.701Z,2.50
2023-08-27T11:55:44.510Z,3.00
2023-08-27T11:56:44.460Z,3.80
2023-08-27T11:57:44.444Z,4.20
2023-08-27T11:58:44.480Z,2.10
2023-08-27T11:59:44.465Z,2.80
2023-08-27T12:00:44.675Z,3.20
2023-08-27T12:01:44.467Z,4.90
2023-08-27T12:02:44.445Z,4.50
2023-08-27T12:03:44.393Z,2.50
2023-08-27T12:04:44.461Z,3.90
2023-08-27T12:05:44.381Z,3.30
2023-08-27T12:06:44.347Z,2.40
2023-08-27T12:07:44.352Z,5.30
2023-08-27T12:08:44.332Z,5.10
2023-08-27T12:09:44.329Z,2.90
2023-08-27T12:10:44.294Z,3.20
2023-08-27T12:11:44.304Z,3.40
2023-08-27T12:12:44.289Z,4.60
2023-08-27T12:13:44.275Z,7.20
2023-08-27T12:14:44.268Z,4.60
2023-08-27T12:15:44.257Z,3.00
2023-08-27T12:16:44.265Z,2.40
2023-08-27T12:17:44.298Z,3.20
2023-08-27T12:18:44.267Z,4.80
2023-08-27T12:19:44.201Z,2.40
2023-08-27T12:20:44.180Z,4.10
2023-08-27T12:21:44.237Z,3.70
2023-08-27T12:22:44.148Z,3.40
2023-08-27T12:23:44.229Z,2.60
2023-08-27T12:24:44.154Z,2.50
2023-08-27T12:25:44.146Z,4.40
2023-08-27T12:26:44.186Z,5.50
2023-08-27T12:27:44.200Z,7.10
2023-08-27T12:28:44.084Z,3.00
2023-08-27T12:29:44.125Z,6.70
2023-08-27T12:30:44.121Z,3.00
2023-08-27T12:31:44.068Z,6.60
2023-08-27T12:32:44.077Z,3.10
2023-08-27T12:33:44.101Z,3.90
2023-08-27T12:34:44.025Z,4.20
2023-08-27T12:35:44.078Z,5.40
2023-08-27T12:36:43.997Z,8.40
2023-08-27T12:37:44.020Z,9.20
2023-08-27T12:38:44.162Z,4.20
2023-08-27T12:39:43.985Z,4.90
2023-08-27T12:40:44.023Z,3.50
2023-08-27T12:41:43.985Z,4.50
2023-08-27T12:42:43.976Z,5.80
2023-08-27T12:43:43.944Z,3.90
2023-08-27T12:44:43.931Z,4.70
2023-08-27T12:45:44.238Z,5.00
2023-08-27T12:46:43.943Z,3.70
2023-08-27T12:47:43.974Z,5.10
2023-08-27T12:48:43.866Z,4.50
2023-08-27T12:49:43.971Z,4.30
2023-08-27T12:50:43.861Z,4.80
2023-08-27T12:52:54.182Z,4.10
2023-08-27T12:53:55.133Z,3.30
2023-08-27T12:54:55.141Z,3.60
2023-08-27T12:55:55.133Z,3.00
2023-08-27T12:56:55.116Z,4.00
2023-08-27T12:57:55.125Z,3.90
2023-08-27T12:58:55.098Z,3.00
2023-08-27T12:59:55.215Z,3.40
2023-08-27T13:00:55.112Z,5.20
2023-08-27T13:01:55.083Z,3.50
2023-08-27T13:02:57.732Z,3.80
2023-08-27T13:03:56.276Z,3.30
2023-08-27T13:04:55.053Z,1.10
2023-08-27T13:05:55.037Z,3.20
2023-08-27T13:06:55.045Z,3.80
2023-08-27T13:07:55.009Z,2.30
2023-08-27T13:08:55.006Z,4.50
2023-08-27T13:09:54.989Z,3.80
2023-08-27T13:10:58.128Z,3.00
2023-08-27T13:11:54.948Z,1.50
2023-08-27T13:12:55.037Z,2.90
2023-08-27T13:13:54.923Z,5.30
2023-08-27T13:14:54.928Z,3.30
2023-08-27T13:15:54.930Z,3.10
2023-08-27T13:16:54.906Z,4.70
2023-08-27T13:17:54.947Z,3.30
2023-08-27T13:18:57.736Z,4.50